Time;durP1;ratioP1;P1;durP2;ratioP2;P2;SDS_P1;SDS_P2;PMS_P1;PMS_P2;Temp;Humidity;BMP_temperature;BMP_pressure;BME280_temperature;BME280_humidity;BME280_pressure;Samples;Min_cycle;Max_cycle;Signal;HPM_P1;HPM_P2
2022/03/05 00:00:50;;;;;;;52.70;23.73;;;0.00;99.90;;;;;;5034879;28;20438;-74
2022/03/05 00:03:16;;;;;;;56.88;27.85;;;0.00;99.90;;;;;;5035128;28;20155;-74
2022/03/05 00:05:41;;;;;;;67.20;30.27;;;0.00;99.90;;;;;;5034990;28;20021;-74
2022/03/05 00:08:08;;;;;;;62.38;27.83;;;0.00;99.90;;;;;;5034833;28;20084;-74
2022/03/05 00:10:35;;;;;;;60.38;26.73;;;0.00;99.90;;;;;;5034930;28;20430;-73
2022/03/05 00:13:00;;;;;;;58.20;27.63;;;0.00;99.90;;;;;;5034822;28;20048;-74
2022/03/05 00:15:26;;;;;;;62.63;28.20;;;0.00;99.90;;;;;;5034766;28;20487;-74
2022/03/05 00:17:53;;;;;;;69.35;33.70;;;0.00;99.90;;;;;;5034558;28;20021;-73
2022/03/05 00:20:18;;;;;;;59.40;28.50;;;0.10;99.90;;;;;;5016935;28;20112;-74
2022/03/05 00:22:46;;;;;;;65.55;28.73;;;0.10;99.90;;;;;;5034578;28;20038;-73
2022/03/05 00:25:12;;;;;;;66.35;29.45;;;0.10;99.90;;;;;;5016944;28;20569;-74
2022/03/05 00:27:38;;;;;;;58.90;30.40;;;0.10;99.90;;;;;;5034328;28;20092;-74
2022/03/05 00:30:04;;;;;;;65.63;28.20;;;0.10;99.90;;;;;;5036400;28;20056;-74
2022/03/05 00:32:30;;;;;;;68.10;31.85;;;0.00;99.90;;;;;;5054673;28;20474;-73
2022/03/05 00:34:55;;;;;;;59.97;29.48;;;0.10;99.90;;;;;;5054624;28;20071;-73
2022/03/05 00:37:21;;;;;;;49.78;24.58;;;0.00;99.90;;;;;;5054670;28;20029;-74
2022/03/05 00:39:47;;;;;;;62.63;29.60;;;0.00;99.90;;;;;;5054576;28;20052;-73
2022/03/05 00:42:13;;;;;;;62.63;29.05;;;0.00;99.90;;;;;;5036638;28;20435;-73
2022/03/05 00:44:39;;;;;;;73.22;32.15;;;0.00;99.90;;;;;;5054476;28;20394;-74
2022/03/05 00:47:04;;;;;;;63.30;29.75;;;0.00;99.90;;;;;;5036534;28;20028;-73
2022/03/05 00:49:30;;;;;;;63.65;28.70;;;0.00;99.90;;;;;;5054509;28;20025;-73
2022/03/05 00:51:56;;;;;;;49.95;23.00;;;0.00;99.90;;;;;;5054125;28;20064;-74
2022/03/05 00:54:22;;;;;;;56.45;25.50;;;0.00;99.90;;;;;;5054343;28;20029;-73
2022/03/05 00:56:48;;;;;;;53.97;23.63;;;0.00;99.90;;;;;;5054158;28;20032;-73
2022/03/05 00:59:13;;;;;;;53.33;24.88;;;0.00;99.90;;;;;;5036258;28;20056;-73
2022/03/05 01:01:40;;;;;;;49.67;24.77;;;0.00;99.90;;;;;;5054157;28;20410;-74
2022/03/05 01:04:06;;;;;;;57.75;25.30;;;0.00;99.90;;;;;;5054281;28;20021;-73
2022/03/05 01:06:32;;;;;;;56.95;25.00;;;0.00;99.90;;;;;;5054238;28;20452;-74
2022/03/05 01:08:59;;;;;;;53.17;26.00;;;0.00;99.90;;;;;;5054144;28;20040;-74
2022/03/05 01:11:25;;;;;;;55.55;25.98;;;0.00;99.90;;;;;;5053972;28;20102;-74
2022/03/05 01:13:51;;;;;;;55.72;26.90;;;0.00;99.90;;;;;;5053914;28;20439;-74
2022/03/05 01:16:16;;;;;;;55.00;25.50;;;0.00;99.90;;;;;;5053837;28;20037;-74
2022/03/05 01:18:42;;;;;;;54.72;25.40;;;0.00;99.90;;;;;;5036022;28;20055;-74
2022/03/05 01:21:08;;;;;;;51.97;24.63;;;-0.10;99.90;;;;;;5035925;28;20052;-74
2022/03/05 01:23:34;;;;;;;55.63;26.92;;;-0.10;99.90;;;;;;5053760;28;20419;-74
2022/03/05 01:25:59;;;;;;;48.55;23.10;;;-0.10;99.90;;;;;;5053632;28;20421;-73
2022/03/05 01:28:25;;;;;;;48.60;22.27;;;-0.20;99.90;;;;;;5035883;28;20374;-73
2022/03/05 01:30:51;;;;;;;37.80;20.10;;;-0.20;99.90;;;;;;5053602;28;20032;-74
2022/03/05 01:33:17;;;;;;;43.33;22.13;;;-0.20;99.90;;;;;;5053700;28;20029;-74
2022/03/05 01:35:45;;;;;;;45.33;22.42;;;-0.30;99.90;;;;;;5053631;28;20444;-74
2022/03/05 01:38:10;;;;;;;49.63;22.20;;;-0.20;99.90;;;;;;5053522;28;20079;-74
2022/03/05 01:40:36;;;;;;;43.70;22.42;;;-0.20;99.90;;;;;;5035751;28;20017;-74
2022/03/05 01:43:02;;;;;;;42.15;20.95;;;-0.20;99.90;;;;;;5035474;28;20040;-73
2022/03/05 01:45:28;;;;;;;45.55;22.20;;;-0.20;99.90;;;;;;5053519;28;20029;-73
2022/03/05 01:47:54;;;;;;;43.70;21.13;;;-0.20;99.90;;;;;;5035401;28;20028;-73
2022/03/05 01:50:19;;;;;;;41.22;19.88;;;-0.20;99.90;;;;;;5053334;28;20017;-74
2022/03/05 01:52:45;;;;;;;45.42;21.90;;;-0.20;99.90;;;;;;5035386;28;20382;-73
2022/03/05 01:55:13;;;;;;;46.55;21.98;;;-0.30;99.90;;;;;;5053338;28;20033;-74
2022/03/05 01:57:39;;;;;;;39.80;19.83;;;-0.30;99.90;;;;;;5053319;28;20064;-73
2022/03/05 02:00:08;;;;;;;42.42;20.50;;;-0.30;99.90;;;;;;5053325;28;20028;-73
2022/03/05 02:02:33;;;;;;;39.72;19.55;;;-0.30;99.90;;;;;;5035337;28;20485;-73
2022/03/05 02:04:59;;;;;;;45.38;21.05;;;-0.30;99.90;;;;;;5053032;28;20025;-74
2022/03/05 02:07:24;;;;;;;45.05;21.58;;;-0.30;99.90;;;;;;5053153;28;20017;-73
2022/03/05 02:09:51;;;;;;;39.67;20.13;;;-0.30;99.90;;;;;;5052691;28;20398;-74
2022/03/05 02:12:17;;;;;;;43.53;20.13;;;-0.30;99.90;;;;;;5035025;28;20044;-74
2022/03/05 02:14:43;;;;;;;50.22;23.42;;;-0.30;99.90;;;;;;5053175;28;20036;-74
2022/03/05 02:17:10;;;;;;;47.00;23.23;;;-0.20;99.90;;;;;;5053034;28;20021;-73
2022/03/05 02:19:35;;;;;;;46.75;22.75;;;-0.30;99.90;;;;;;5035325;28;20056;-73
2022/03/05 02:22:01;;;;;;;43.30;21.52;;;-0.30;99.90;;;;;;5053011;28;20048;-74
2022/03/05 02:24:33;;;;;;;43.28;20.92;;;-0.30;99.90;;;;;;5035057;28;20540;-75
2022/03/05 02:27:03;;;;;;;43.38;19.58;;;-0.30;99.90;;;;;;5053159;28;20104;-73
2022/03/05 02:29:31;;;;;;;46.22;20.95;;;-0.40;99.90;;;;;;5035056;28;20028;-75
2022/03/05 02:31:57;;;;;;;45.53;21.45;;;-0.40;99.90;;;;;;5052879;28;20025;-74
2022/03/05 02:34:23;;;;;;;43.08;19.58;;;-0.40;99.90;;;;;;5052991;28;20105;-74
2022/03/05 02:36:49;;;;;;;46.67;21.02;;;-0.40;99.90;;;;;;5052564;28;20032;-73
2022/03/05 02:39:14;;;;;;;46.45;20.73;;;-0.40;99.90;;;;;;5034919;28;20021;-74
2022/03/05 02:41:40;;;;;;;45.72;22.38;;;-0.40;99.90;;;;;;5034981;28;20025;-73
2022/03/05 02:44:06;;;;;;;46.88;19.58;;;-0.40;99.90;;;;;;5052839;28;20441;-73
2022/03/05 02:46:34;;;;;;;55.53;22.98;;;-0.40;99.90;;;;;;5052844;28;20556;-73
2022/03/05 02:49:00;;;;;;;48.58;21.88;;;-0.40;99.90;;;;;;5052816;28;20021;-74
2022/03/05 02:51:25;;;;;;;48.97;24.48;;;-0.40;99.90;;;;;;5052718;28;20033;-74
2022/03/05 02:53:51;;;;;;;56.10;22.63;;;-0.40;99.90;;;;;;5034864;28;20013;-73
2022/03/05 02:56:16;;;;;;;48.78;20.70;;;-0.40;99.90;;;;;;5052621;28;20083;-74
2022/03/05 02:58:42;;;;;;;37.10;18.13;;;-0.40;99.90;;;;;;5052480;28;20060;-74
2022/03/05 03:01:08;;;;;;;41.30;19.75;;;-0.40;99.90;;;;;;5034638;28;20386;-74
2022/03/05 03:03:34;;;;;;;40.95;20.08;;;-0.50;99.90;;;;;;5052753;28;20031;-73
2022/03/05 03:06:00;;;;;;;38.65;18.55;;;-0.40;99.90;;;;;;5052616;28;20074;-74
2022/03/05 03:08:26;;;;;;;36.13;17.25;;;-0.50;99.90;;;;;;5052604;28;20029;-74
2022/03/05 03:10:51;;;;;;;35.85;18.88;;;-0.50;99.90;;;;;;5034686;28;20090;-74
2022/03/05 03:13:17;;;;;;;36.88;18.35;;;-0.50;99.90;;;;;;5052451;28;20440;-73
2022/03/05 03:15:43;;;;;;;41.95;20.38;;;-0.50;99.90;;;;;;5034655;28;20037;-75
2022/03/05 03:18:08;;;;;;;35.00;16.90;;;-0.50;99.90;;;;;;5052693;28;20040;-74
2022/03/05 03:20:34;;;;;;;42.30;19.85;;;-0.50;99.90;;;;;;5034651;28;20017;-74
2022/03/05 03:22:59;;;;;;;38.22;16.85;;;-0.50;99.90;;;;;;5037496;28;20120;-73
2022/03/05 03:25:25;;;;;;;36.22;18.35;;;-0.70;99.90;;;;;;5055872;28;20037;-75
2022/03/05 03:27:51;;;;;;;38.50;20.05;;;-0.70;99.90;;;;;;5038170;28;20116;-73
2022/03/05 03:30:17;;;;;;;28.73;15.43;;;-0.60;99.90;;;;;;5055999;28;20103;-74
2022/03/05 03:32:43;;;;;;;41.63;19.98;;;-0.70;99.90;;;;;;5056059;28;20484;-74
2022/03/05 03:35:11;;;;;;;39.95;19.52;;;-0.70;99.90;;;;;;5055754;28;20037;-73
2022/03/05 03:37:38;;;;;;;44.33;21.40;;;-0.60;99.90;;;;;;5055895;28;20075;-73
2022/03/05 03:40:07;;;;;;;38.35;18.90;;;-0.70;99.90;;;;;;5037971;28;20096;-73
2022/03/05 03:42:33;;;;;;;32.42;14.55;;;-0.80;99.90;;;;;;5055724;28;20063;-73
2022/03/05 03:44:59;;;;;;;33.72;15.20;;;-0.80;99.90;;;;;;5055579;28;20028;-75
2022/03/05 03:47:24;;;;;;;28.92;15.73;;;-0.80;99.90;;;;;;5055786;28;20090;-74
2022/03/05 03:49:50;;;;;;;36.70;17.85;;;-0.90;99.90;;;;;;5055508;28;20028;-73
2022/03/05 03:52:16;;;;;;;29.85;16.27;;;-0.80;99.90;;;;;;5037579;28;20432;-74
2022/03/05 03:54:44;;;;;;;34.13;15.70;;;-0.80;99.90;;;;;;5055401;28;20032;-75
2022/03/05 03:57:10;;;;;;;33.17;17.13;;;-0.90;99.90;;;;;;5055381;28;20469;-73
2022/03/05 03:59:35;;;;;;;30.15;17.70;;;-0.90;99.90;;;;;;5037684;28;20017;-73
2022/03/05 04:02:02;;;;;;;38.15;17.42;;;-0.90;99.90;;;;;;5055356;28;20031;-74
2022/03/05 04:04:28;;;;;;;32.58;14.05;;;-0.90;99.90;;;;;;5037261;28;20021;-74
2022/03/05 04:09:38;;;;;;;29.90;14.90;;;-0.90;99.90;;;;;;5055365;28;20394;-73
2022/03/05 04:12:04;;;;;;;44.33;19.42;;;-1.00;99.90;;;;;;5037272;28;20029;-73
2022/03/05 04:14:29;;;;;;;37.72;17.75;;;-1.00;99.90;;;;;;5055239;28;20079;-73
2022/03/05 04:16:55;;;;;;;38.78;17.92;;;-1.00;99.90;;;;;;5055103;28;20163;-73
2022/03/05 04:19:20;;;;;;;38.97;19.00;;;-1.10;99.90;;;;;;5054976;28;20074;-75
2022/03/05 04:21:46;;;;;;;35.33;19.27;;;-1.10;99.90;;;;;;5054965;28;20025;-73
2022/03/05 04:24:12;;;;;;;39.80;17.92;;;-1.10;99.90;;;;;;5054913;28;20485;-73
2022/03/05 04:26:38;;;;;;;31.83;15.60;;;-1.10;99.90;;;;;;5054950;28;20064;-74
2022/03/05 04:29:04;;;;;;;35.67;16.65;;;-1.10;99.90;;;;;;5054736;28;20025;-74
2022/03/05 04:31:30;;;;;;;31.38;15.73;;;-1.10;99.90;;;;;;5054719;28;20029;-73
2022/03/05 04:33:56;;;;;;;31.13;15.98;;;-1.10;99.90;;;;;;5054120;28;20433;-73
2022/03/05 04:36:22;;;;;;;31.15;16.48;;;-1.20;99.90;;;;;;5036604;28;20035;-74
2022/03/05 04:38:47;;;;;;;28.20;15.90;;;-1.20;99.90;;;;;;5054609;28;20504;-74
2022/03/05 04:41:13;;;;;;;31.23;16.38;;;-1.20;99.90;;;;;;5054493;28;20096;-73
2022/03/05 04:43:38;;;;;;;31.05;15.90;;;-1.30;99.90;;;;;;5054659;28;20067;-74
2022/03/05 04:46:04;;;;;;;29.50;15.32;;;-1.40;99.90;;;;;;5054471;28;20017;-73
2022/03/05 04:48:29;;;;;;;32.08;15.00;;;-1.40;99.90;;;;;;5054609;28;20548;-74
2022/03/05 04:50:55;;;;;;;31.20;16.70;;;-1.40;99.90;;;;;;5054458;28;20106;-73
2022/03/05 04:53:21;;;;;;;35.08;16.45;;;-1.40;99.90;;;;;;5054525;28;20025;-74
2022/03/05 04:55:48;;;;;;;30.48;16.52;;;-1.40;99.90;;;;;;5036282;28;20033;-75
2022/03/05 04:58:13;;;;;;;28.60;14.45;;;-1.50;99.90;;;;;;5054212;28;20060;-74
2022/03/05 05:00:40;;;;;;;32.10;15.35;;;-1.50;99.90;;;;;;5054401;28;20099;-74
2022/03/05 05:03:06;;;;;;;32.05;14.05;;;-1.50;99.90;;;;;;5054387;28;20020;-73
2022/03/05 05:05:31;;;;;;;32.25;17.77;;;-1.50;99.90;;;;;;5054160;28;20052;-74
2022/03/05 05:07:57;;;;;;;31.77;15.57;;;-1.50;99.90;;;;;;5054103;28;20035;-73
2022/03/05 05:10:22;;;;;;;32.72;17.27;;;-1.60;99.90;;;;;;5053927;28;20444;-74
2022/03/05 05:12:48;;;;;;;33.70;17.42;;;-1.50;99.90;;;;;;5053976;28;20477;-73
2022/03/05 05:15:14;;;;;;;30.90;17.05;;;-1.50;99.90;;;;;;5053748;28;20083;-74
2022/03/05 05:17:39;;;;;;;31.35;16.75;;;-1.60;99.90;;;;;;5053828;28;20501;-73
2022/03/05 05:20:07;;;;;;;30.95;16.58;;;-1.60;99.90;;;;;;5053812;28;20482;-74
2022/03/05 05:22:32;;;;;;;32.20;16.33;;;-1.50;99.90;;;;;;5053805;28;20029;-73
2022/03/05 05:24:59;;;;;;;31.17;15.30;;;-1.50;99.90;;;;;;5053781;28;20462;-73
2022/03/05 05:27:25;;;;;;;26.27;14.18;;;-1.60;99.90;;;;;;5035729;28;20017;-74
2022/03/05 05:29:51;;;;;;;28.70;15.68;;;-1.60;99.90;;;;;;5053696;28;20543;-73
2022/03/05 05:32:17;;;;;;;29.33;14.85;;;-1.60;99.90;;;;;;5053637;28;20029;-73
2022/03/05 05:34:43;;;;;;;27.08;15.55;;;-1.70;99.90;;;;;;5053645;28;20029;-74
2022/03/05 05:37:09;;;;;;;29.58;16.85;;;-1.70;99.90;;;;;;5035415;28;20017;-73
2022/03/05 05:39:36;;;;;;;27.40;13.80;;;-1.70;99.90;;;;;;5053574;28;20100;-73
2022/03/05 05:42:02;;;;;;;30.10;16.00;;;-1.70;99.90;;;;;;5035573;28;20067;-73
2022/03/05 05:44:28;;;;;;;31.60;17.05;;;-1.70;99.90;;;;;;5053341;28;20017;-74
2022/03/05 05:46:53;;;;;;;30.95;14.77;;;-1.80;99.90;;;;;;5052775;28;20029;-73
2022/03/05 05:49:19;;;;;;;30.02;15.20;;;-1.70;99.90;;;;;;5035463;28;20021;-73
2022/03/05 05:51:45;;;;;;;33.70;17.33;;;-1.70;99.90;;;;;;5053254;28;20053;-73
2022/03/05 05:54:10;;;;;;;36.80;17.67;;;-1.70;99.90;;;;;;5053410;28;20057;-74
2022/03/05 05:56:36;;;;;;;35.40;17.27;;;-1.70;99.90;;;;;;5035464;28;20024;-73
2022/03/05 05:59:03;;;;;;;35.85;18.50;;;-1.60;99.90;;;;;;5053346;28;20132;-73
2022/03/05 06:01:28;;;;;;;35.75;17.05;;;-1.60;99.90;;;;;;5053309;28;20086;-73
2022/03/05 06:03:54;;;;;;;30.73;16.70;;;-1.60;99.90;;;;;;5051502;28;20025;-73
2022/03/05 06:06:21;;;;;;;29.55;15.80;;;-1.70;99.90;;;;;;5032486;28;20108;-73
2022/03/05 06:08:46;;;;;;;38.70;18.02;;;-1.60;99.90;;;;;;5033015;28;20014;-73
2022/03/05 06:11:12;;;;;;;34.88;18.23;;;-1.60;99.90;;;;;;5032960;28;20393;-73
2022/03/05 06:13:37;;;;;;;36.88;17.50;;;-1.50;99.90;;;;;;5033095;28;20029;-73
2022/03/05 06:16:04;;;;;;;31.33;16.42;;;-1.50;99.90;;;;;;5032771;28;20129;-73
2022/03/05 06:18:29;;;;;;;32.58;17.35;;;-1.50;99.90;;;;;;5014983;28;20051;-74
2022/03/05 06:20:55;;;;;;;31.95;18.77;;;-1.40;99.90;;;;;;5015230;28;20395;-73
2022/03/05 06:23:23;;;;;;;34.40;16.85;;;-1.50;99.90;;;;;;5033110;28;20033;-74
2022/03/05 06:25:49;;;;;;;36.58;17.58;;;-1.50;99.90;;;;;;5015076;28;20049;-73
2022/03/05 06:28:15;;;;;;;34.40;19.00;;;-1.40;99.90;;;;;;5032366;28;20060;-73
2022/03/05 06:30:40;;;;;;;33.53;17.05;;;-1.40;99.90;;;;;;5029737;28;20072;-73
2022/03/05 06:33:06;;;;;;;32.47;15.95;;;-1.40;99.90;;;;;;5014267;28;20026;-73
2022/03/05 06:35:31;;;;;;;35.25;17.05;;;-1.30;99.90;;;;;;5032416;28;20510;-73
2022/03/05 06:37:57;;;;;;;32.85;16.63;;;-1.30;99.90;;;;;;5032378;28;20053;-73
2022/03/05 06:40:23;;;;;;;36.25;17.38;;;-1.20;99.90;;;;;;5032603;28;20382;-74
2022/03/05 06:42:48;;;;;;;31.45;16.98;;;-1.20;99.90;;;;;;5032892;28;20593;-74
2022/03/05 06:45:14;;;;;;;33.38;17.02;;;-1.20;99.90;;;;;;5014904;28;20032;-73
2022/03/05 06:47:40;;;;;;;41.55;22.55;;;-1.20;99.90;;;;;;5032410;28;20057;-74
2022/03/05 06:50:07;;;;;;;42.08;19.80;;;-1.10;99.90;;;;;;5032660;28;20040;-74
2022/03/05 06:52:33;;;;;;;34.45;17.75;;;-1.10;99.90;;;;;;5032364;28;20060;-73
2022/03/05 06:54:59;;;;;;;32.45;17.20;;;-1.00;99.90;;;;;;5032449;28;20033;-75
2022/03/05 06:57:26;;;;;;;34.50;17.42;;;-0.90;99.90;;;;;;5034596;28;20045;-74
2022/03/05 06:59:51;;;;;;;27.00;14.32;;;-0.80;99.90;;;;;;5036447;28;20021;-73
2022/03/05 07:02:17;;;;;;;29.88;15.02;;;-0.80;99.90;;;;;;5035399;28;20391;-74
2022/03/05 07:04:43;;;;;;;23.65;14.13;;;-0.80;99.90;;;;;;5036360;28;20104;-74
2022/03/05 07:07:08;;;;;;;30.30;16.38;;;-0.70;99.90;;;;;;5036461;28;20034;-73
2022/03/05 07:09:34;;;;;;;33.53;16.48;;;-0.70;99.90;;;;;;5036470;28;20021;-74
2022/03/05 07:12:00;;;;;;;29.95;15.30;;;-0.60;99.90;;;;;;5036292;28;20029;-74
2022/03/05 07:14:26;;;;;;;24.67;14.23;;;-0.60;99.90;;;;;;5018352;28;20025;-74
2022/03/05 07:16:52;;;;;;;25.73;13.70;;;-0.50;99.90;;;;;;5036013;28;20439;-73
2022/03/05 07:19:18;;;;;;;19.30;11.57;;;-0.40;99.90;;;;;;5018611;28;20141;-73
2022/03/05 07:21:43;;;;;;;21.52;12.70;;;-0.40;99.90;;;;;;5036264;28;20104;-73
2022/03/05 07:24:09;;;;;;;24.23;12.07;;;-0.30;99.90;;;;;;5036166;28;20021;-74
2022/03/05 07:26:35;;;;;;;27.25;13.48;;;-0.30;96.10;;;;;;5018363;28;20448;-73
2022/03/05 07:29:01;;;;;;;23.90;13.88;;;-0.30;95.40;;;;;;5036065;28;20039;-74
2022/03/05 07:31:27;;;;;;;28.80;14.63;;;-0.20;97.20;;;;;;5018162;28;20022;-74
2022/03/05 07:33:52;;;;;;;24.95;13.07;;;-0.20;97.40;;;;;;5035470;28;20049;-74
2022/03/05 07:36:19;;;;;;;24.33;13.00;;;-0.10;93.50;;;;;;5017517;28;20088;-74
2022/03/05 07:38:45;;;;;;;21.63;11.35;;;0.00;94.20;;;;;;5034425;28;20109;-73
2022/03/05 07:41:11;;;;;;;23.25;11.00;;;-0.10;92.40;;;;;;5018043;28;20108;-74
2022/03/05 07:43:37;;;;;;;19.38;12.40;;;-0.10;89.50;;;;;;5017789;28;20033;-73
2022/03/05 07:46:04;;;;;;;18.20;9.85;;;-0.10;89.50;;;;;;5017594;28;20022;-74
2022/03/05 07:48:30;;;;;;;17.38;10.07;;;0.00;86.40;;;;;;5039756;28;20036;-74
2022/03/05 07:50:58;;;;;;;15.30;9.63;;;0.00;85.80;;;;;;5042621;28;20022;-72
2022/03/05 07:53:24;;;;;;;15.23;9.68;;;0.10;83.70;;;;;;5026111;28;20028;-71
2022/03/05 07:55:50;;;;;;;13.95;8.90;;;0.00;81.50;;;;;;5019751;28;20025;-74
2022/03/05 07:58:15;;;;;;;17.38;9.77;;;0.00;82.30;;;;;;5035420;28;20061;-73
2022/03/05 08:00:41;;;;;;;15.20;9.15;;;0.10;81.90;;;;;;5035440;28;20475;-73
2022/03/05 08:03:07;;;;;;;14.88;9.10;;;0.10;81.30;;;;;;5018577;28;20021;-73
2022/03/05 08:05:32;;;;;;;16.83;8.77;;;0.10;78.10;;;;;;5036782;28;20466;-74
2022/03/05 08:07:58;;;;;;;11.85;7.95;;;0.20;79.20;;;;;;5053099;28;20025;-74
2022/03/05 08:10:23;;;;;;;19.00;9.73;;;0.20;76.20;;;;;;5053667;28;20063;-73
2022/03/05 08:12:49;;;;;;;15.23;8.93;;;0.30;76.20;;;;;;5054757;28;20108;-73
2022/03/05 08:15:14;;;;;;;30.55;14.57;;;0.30;74.00;;;;;;5034895;28;20034;-74
2022/03/05 08:17:55;;;;;;;16.45;9.82;;;0.40;74.50;;;;;;5026827;28;20033;-74
2022/03/05 08:20:22;;;;;;;48.75;24.52;;;0.50;74.10;;;;;;5015899;28;20045;-74
2022/03/05 08:22:48;;;;;;;29.30;14.95;;;0.60;75.20;;;;;;5054519;28;20441;-74
2022/03/05 08:25:14;;;;;;;28.25;16.27;;;0.50;71.40;;;;;;5054550;28;20021;-74
2022/03/05 08:27:40;;;;;;;15.18;11.20;;;0.50;71.70;;;;;;5035923;28;20052;-74
2022/03/05 08:30:06;;;;;;;15.25;10.60;;;0.50;72.00;;;;;;5034663;28;20029;-74
2022/03/05 08:32:32;;;;;;;15.90;8.68;;;0.50;70.90;;;;;;5034666;28;20105;-74
2022/03/05 08:34:58;;;;;;;11.82;9.18;;;0.50;71.50;;;;;;5034115;28;20060;-74
2022/03/05 08:37:23;;;;;;;14.60;8.88;;;0.60;74.10;;;;;;5034516;28;20364;-74
2022/03/05 08:39:49;;;;;;;15.02;8.13;;;0.50;71.30;;;;;;5034309;28;20025;-74
2022/03/05 08:42:14;;;;;;;18.50;12.88;;;0.50;70.50;;;;;;5016701;28;20112;-74
2022/03/05 08:44:40;;;;;;;11.88;8.60;;;0.60;71.80;;;;;;5034047;28;20017;-75
2022/03/05 08:47:06;;;;;;;24.25;15.55;;;0.60;72.70;;;;;;5034434;28;20025;-75
2022/03/05 08:49:31;;;;;;;12.75;8.95;;;0.80;71.20;;;;;;5034300;28;20024;-74
2022/03/05 08:51:57;;;;;;;14.15;9.20;;;0.70;69.10;;;;;;5034116;28;20387;-75
2022/03/05 08:54:22;;;;;;;31.13;19.35;;;0.70;69.30;;;;;;5033880;28;20030;-71
2022/03/05 08:56:48;;;;;;;12.98;8.40;;;0.70;69.40;;;;;;5036342;28;20051;-71
2022/03/05 08:59:14;;;;;;;68.90;27.83;;;0.70;65.30;;;;;;5014694;28;20073;-72
2022/03/05 09:01:40;;;;;;;79.88;25.85;;;0.70;66.50;;;;;;5033844;28;20497;-72
2022/03/05 09:04:05;;;;;;;23.48;10.13;;;0.80;66.50;;;;;;5033905;28;20429;-71
2022/03/05 09:06:31;;;;;;;10.52;6.72;;;0.90;66.70;;;;;;5033966;28;20104;-71
2022/03/05 09:08:57;;;;;;;10.45;6.55;;;0.90;64.60;;;;;;5033559;28;20475;-71
2022/03/05 09:11:23;;;;;;;77.20;35.67;;;1.00;63.90;;;;;;5016031;28;20006;-72
2022/03/05 09:13:48;;;;;;;14.63;8.25;;;1.00;64.50;;;;;;5033606;28;20083;-72
2022/03/05 09:16:15;;;;;;;11.15;7.32;;;1.00;62.00;;;;;;5033617;28;20498;-72
2022/03/05 09:18:40;;;;;;;9.07;6.53;;;1.00;61.90;;;;;;5000319;28;20030;-72
2022/03/05 09:21:07;;;;;;;12.07;8.07;;;1.10;60.80;;;;;;5012401;28;20383;-72
2022/03/05 09:23:33;;;;;;;14.70;8.48;;;1.10;62.40;;;;;;5013949;28;20021;-72
2022/03/05 09:25:59;;;;;;;20.17;10.80;;;1.10;62.20;;;;;;5013712;28;20092;-71
2022/03/05 09:28:24;;;;;;;14.15;8.15;;;1.10;61.30;;;;;;5013826;28;20430;-72
2022/03/05 09:30:50;;;;;;;18.80;8.30;;;1.00;61.20;;;;;;4995719;28;20022;-72
2022/03/05 09:33:16;;;;;;;6.65;4.72;;;1.00;60.60;;;;;;5013511;28;20033;-72
2022/03/05 09:35:43;;;;;;;7.60;4.85;;;0.80;59.80;;;;;;5022923;28;20108;-71
2022/03/05 09:38:09;;;;;;;9.25;6.05;;;0.80;60.80;;;;;;5032900;28;20021;-72
2022/03/05 09:40:35;;;;;;;8.43;5.32;;;0.70;60.50;;;;;;5032534;28;20379;-72
2022/03/05 09:43:01;;;;;;;9.50;5.97;;;0.70;61.20;;;;;;5032865;28;20030;-72
2022/03/05 09:45:27;;;;;;;11.95;7.03;;;0.80;62.80;;;;;;5033131;28;20030;-72
2022/03/05 09:47:55;;;;;;;11.88;6.32;;;1.00;62.90;;;;;;5032969;28;20025;-72
2022/03/05 09:50:22;;;;;;;19.83;10.57;;;1.30;65.00;;;;;;5032495;28;20029;-72
2022/03/05 09:52:48;;;;;;;16.58;9.85;;;1.40;63.80;;;;;;5033061;28;20041;-72
2022/03/05 09:55:13;;;;;;;15.20;7.80;;;1.50;63.10;;;;;;5032687;28;20403;-72
2022/03/05 09:57:39;;;;;;;9.73;5.82;;;1.40;61.90;;;;;;5015196;28;20095;-72
2022/03/05 10:00:05;;;;;;;10.38;6.53;;;1.20;60.30;;;;;;5015014;28;20049;-72
2022/03/05 10:02:32;;;;;;;10.35;6.75;;;1.10;61.40;;;;;;5015235;28;20136;-72
2022/03/05 10:05:27;;;;;;;9.40;6.50;;;1.00;61.40;;;;;;5032935;28;20018;-72
2022/03/05 10:08:00;;;;;;;9.80;5.22;;;1.30;60.80;;;;;;5012060;28;20087;-72
2022/03/05 10:10:26;;;;;;;23.58;12.02;;;1.50;61.00;;;;;;5032041;28;20034;-73
2022/03/05 10:12:52;;;;;;;5.32;4.45;;;1.60;59.80;;;;;;5032838;28;20037;-73
2022/03/05 10:15:18;;;;;;;8.88;6.80;;;1.70;56.50;;;;;;5032802;28;20411;-73
2022/03/05 10:17:47;;;;;;;13.02;6.60;;;2.10;58.10;;;;;;5032685;28;20025;-72
2022/03/05 10:20:13;;;;;;;5.68;3.60;;;2.10;55.80;;;;;;5014686;28;20034;-73
2022/03/05 10:22:38;;;;;;;4.55;3.67;;;1.80;55.40;;;;;;5015179;28;20368;-73
2022/03/05 10:25:04;;;;;;;5.45;4.00;;;1.50;53.80;;;;;;5032774;28;20030;-72
2022/03/05 10:27:30;;;;;;;7.32;4.35;;;1.30;54.80;;;;;;5032659;28;20151;-72
2022/03/05 10:29:56;;;;;;;4.57;4.07;;;1.30;55.90;;;;;;5032458;28;20510;-73
2022/03/05 10:32:22;;;;;;;7.13;5.47;;;1.30;55.50;;;;;;5034724;28;20030;-72
2022/03/05 10:34:50;;;;;;;6.85;4.88;;;1.10;55.40;;;;;;5036759;28;20033;-72
2022/03/05 10:37:21;;;;;;;19.77;10.57;;;1.20;55.30;;;;;;5036665;28;20040;-73
2022/03/05 10:39:48;;;;;;;15.52;10.10;;;1.20;55.90;;;;;;5036720;28;20029;-73
2022/03/05 10:42:17;;;;;;;22.95;12.90;;;1.20;56.10;;;;;;5036318;28;20026;-72
2022/03/05 10:44:43;;;;;;;9.00;5.85;;;1.10;56.50;;;;;;5036580;28;20040;-73
2022/03/05 10:47:08;;;;;;;10.93;6.75;;;1.00;55.80;;;;;;5036521;28;20022;-72
2022/03/05 10:49:36;;;;;;;9.65;6.43;;;1.10;56.60;;;;;;5036621;28;20026;-72
2022/03/05 10:52:09;;;;;;;26.55;10.93;;;1.10;57.20;;;;;;5036024;28;20021;-72
2022/03/05 10:54:39;;;;;;;;;;;1.10;57.90;;;;;;5019187;28;20025;-72
2022/03/05 10:57:18;;;;;;;25.75;17.23;;;1.00;57.90;;;;;;5036047;28;19913;-72
2022/03/05 10:59:48;;;;;;;20.67;10.48;;;1.10;57.60;;;;;;5036448;28;20037;-72
2022/03/05 11:02:17;;;;;;;69.40;23.15;;;1.00;57.10;;;;;;5035829;28;20025;-72
2022/03/05 11:04:43;;;;;;;51.10;16.80;;;1.20;58.80;;;;;;5036220;28;20029;-73
2022/03/05 11:07:09;;;;;;;136.80;43.30;;;1.20;57.80;;;;;;5034791;28;20032;-72
2022/03/05 11:09:37;;;;;;;10.13;6.35;;;1.20;58.60;;;;;;5016448;28;20017;-73
2022/03/05 11:12:04;;;;;;;113.65;44.60;;;1.30;57.50;;;;;;5030717;28;20505;-72
2022/03/05 11:14:30;;;;;;;67.20;25.48;;;1.40;57.10;;;;;;5018294;28;20022;-72
2022/03/05 11:16:56;;;;;;;8.52;5.40;;;1.50;57.70;;;;;;5035813;28;20044;-72
2022/03/05 11:19:26;;;;;;;15.68;6.63;;;1.50;56.70;;;;;;5036252;28;20545;-72
2022/03/05 11:21:53;;;;;;;19.00;9.13;;;1.60;55.90;;;;;;5035546;28;20044;-72
2022/03/05 11:24:20;;;;;;;17.90;9.10;;;1.60;54.60;;;;;;5017503;28;20032;-72
2022/03/05 11:26:51;;;;;;;14.57;8.80;;;1.80;54.50;;;;;;5018013;28;20517;-71
2022/03/05 11:29:19;;;;;;;9.05;6.05;;;1.70;53.60;;;;;;5035922;28;20048;-71
2022/03/05 11:31:46;;;;;;;12.95;6.68;;;1.60;52.50;;;;;;5035384;28;20037;-71
2022/03/05 11:34:15;;;;;;;5.15;3.65;;;1.60;53.00;;;;;;5017968;28;20025;-72
2022/03/05 11:36:42;;;;;;;18.80;10.55;;;1.60;53.10;;;;;;5035443;28;20036;-71
2022/03/05 11:39:16;;;;;;;7.68;5.35;;;1.60;53.30;;;;;;5035615;28;20072;-72
2022/03/05 11:42:02;;;;;;;11.50;7.65;;;1.60;53.00;;;;;;5034681;28;20542;-71
2022/03/05 11:44:42;;;;;;;6.68;5.72;;;1.50;52.80;;;;;;5050355;28;20414;-71
2022/03/05 11:47:23;;;;;;;6.50;3.90;;;1.40;52.90;;;;;;5055185;28;20400;-71
2022/03/05 11:50:00;;;;;;;14.00;6.20;;;1.30;52.80;;;;;;5043766;28;20029;-72
2022/03/05 11:52:41;;;;;;;17.48;9.45;;;1.20;52.80;;;;;;5034173;28;20390;-71
2022/03/05 11:55:15;;;;;;;7.78;5.75;;;1.10;52.60;;;;;;5035199;28;20026;-71
2022/03/05 11:57:43;;;;;;;7.05;4.85;;;1.10;52.50;;;;;;5034640;28;20053;-71
2022/03/05 12:00:10;;;;;;;6.00;3.67;;;1.30;52.10;;;;;;5035181;28;20025;-71
2022/03/05 12:02:43;;;;;;;3.75;3.33;;;1.50;51.20;;;;;;5017063;28;20021;-71
2022/03/05 12:05:08;;;;;;;4.53;3.85;;;1.70;51.80;;;;;;5016710;28;20057;-72
2022/03/05 12:07:40;;;;;;;6.10;3.97;;;1.90;51.00;;;;;;5031751;28;20056;-71
2022/03/05 12:10:15;;;;;;;3.92;3.30;;;1.90;51.30;;;;;;5035005;28;20026;-71
2022/03/05 12:12:59;;;;;;;6.75;3.80;;;1.80;51.10;;;;;;5033204;28;20013;-71
2022/03/05 12:15:28;;;;;;;4.32;3.55;;;1.80;51.30;;;;;;5032414;28;20033;-71
2022/03/05 12:17:54;;;;;;;3.97;3.38;;;1.70;50.90;;;;;;5033991;28;20025;-71
2022/03/05 12:20:26;;;;;;;4.80;3.33;;;1.50;49.90;;;;;;5030419;28;20105;-72
2022/03/05 12:23:01;;;;;;;8.32;3.97;;;1.40;50.70;;;;;;5034287;28;20036;-71
2022/03/05 12:25:32;;;;;;;4.20;3.45;;;1.40;51.80;;;;;;5034733;28;20464;-71
2022/03/05 12:27:59;;;;;;;3.65;3.20;;;1.30;51.40;;;;;;5015688;28;20091;-71
2022/03/05 12:30:37;;;;;;;5.90;4.80;;;1.20;51.00;;;;;;5032883;28;20435;-71
2022/03/05 12:33:11;;;;;;;7.28;4.43;;;1.10;51.30;;;;;;5032114;28;20021;-71
2022/03/05 12:35:38;;;;;;;8.90;5.78;;;1.20;51.10;;;;;;5033132;28;20041;-71